createdAt,value
2018-09-12T00:01:39.057Z,78.53
2018-09-12T00:04:07.553Z,79.53
2018-09-12T00:06:36.046Z,79.26
2018-09-12T00:09:06.854Z,79.23
2018-09-12T00:11:35.337Z,79.48
2018-09-12T00:14:03.885Z,79.79
2018-09-12T00:16:32.342Z,79.47
2018-09-12T00:19:00.987Z,79.80
2018-09-12T00:21:29.485Z,79.19
2018-09-12T00:23:57.962Z,80.05
2018-09-12T00:26:26.582Z,80.25
2018-09-12T00:28:55.179Z,79.52
2018-09-12T00:31:23.654Z,79.69
2018-09-12T00:33:52.162Z,80.56
2018-09-12T00:36:20.673Z,80.68
2018-09-12T00:38:49.158Z,80.43
2018-09-12T00:41:17.613Z,80.51
2018-09-12T00:43:46.129Z,81.00
2018-09-12T00:46:14.618Z,81.32
2018-09-12T00:48:43.148Z,80.34
2018-09-12T00:51:11.625Z,80.80
2018-09-12T00:53:40.156Z,80.09
2018-09-12T00:56:08.653Z,81.00
2018-09-12T00:58:37.140Z,81.08
2018-09-12T01:01:06.262Z,81.35
2018-09-12T01:03:34.890Z,79.77
2018-09-12T01:06:03.389Z,79.88
2018-09-12T01:08:31.950Z,80.98
2018-09-12T01:11:00.467Z,80.73
2018-09-12T01:13:28.920Z,81.42
2018-09-12T01:15:57.405Z,80.80
2018-09-12T01:18:25.921Z,80.58
2018-09-12T01:20:54.425Z,81.23
2018-09-12T01:23:22.923Z,81.87
2018-09-12T01:25:51.397Z,80.78
2018-09-12T01:28:19.903Z,81.31
2018-09-12T01:30:48.386Z,80.99
2018-09-12T01:33:16.929Z,81.28
2018-09-12T01:35:45.466Z,80.70
2018-09-12T01:38:13.949Z,80.83
2018-09-12T01:40:42.441Z,81.37
2018-09-12T01:43:10.958Z,80.87
2018-09-12T01:45:39.424Z,80.48
2018-09-12T01:48:07.966Z,81.55
2018-09-12T01:50:36.470Z,80.94
2018-09-12T01:53:05.061Z,80.47
2018-09-12T01:55:33.565Z,80.59
2018-09-12T01:58:02.052Z,81.45
2018-09-12T02:00:35.829Z,81.54
2018-09-12T02:03:04.342Z,80.86
2018-09-12T02:05:32.878Z,81.27
2018-09-12T02:08:01.358Z,80.98
2018-09-12T02:10:29.920Z,81.77
2018-09-12T02:12:58.470Z,80.57
2018-09-12T02:15:26.989Z,80.59
2018-09-12T02:17:55.486Z,80.65
2018-09-12T02:20:23.997Z,81.55
2018-09-12T02:22:52.501Z,80.66
2018-09-12T02:25:21.297Z,81.36
2018-09-12T02:27:49.773Z,80.40
2018-09-12T02:30:18.281Z,81.28
2018-09-12T02:32:46.776Z,81.57
2018-09-12T02:35:15.257Z,80.92
2018-09-12T02:37:43.769Z,81.35
2018-09-12T02:40:12.240Z,80.95
2018-09-12T02:42:40.727Z,81.27
2018-09-12T02:45:09.316Z,81.73
2018-09-12T02:47:39.045Z,81.21
2018-09-12T02:50:12.560Z,80.78
2018-09-12T02:52:41.052Z,81.13
2018-09-12T02:55:11.193Z,80.74
2018-09-12T02:57:39.685Z,81.30
2018-09-12T03:00:08.656Z,81.08
2018-09-12T03:02:37.277Z,81.44
2018-09-12T03:05:05.950Z,82.05
2018-09-12T03:07:34.510Z,81.78
2018-09-12T03:10:03.051Z,81.95
2018-09-12T03:12:31.520Z,81.07
2018-09-12T03:15:00.002Z,81.55
2018-09-12T03:17:28.502Z,81.80
2018-09-12T03:19:56.998Z,81.74
2018-09-12T03:22:25.493Z,82.43
2018-09-12T03:24:53.985Z,82.74
2018-09-12T03:27:22.605Z,80.95
2018-09-12T03:29:51.093Z,80.44
2018-09-12T03:32:19.599Z,81.12
2018-09-12T03:34:48.078Z,82.84
2018-09-12T03:37:16.567Z,83.37
2018-09-12T03:39:45.041Z,84.68
2018-09-12T03:42:13.577Z,85.79
2018-09-12T03:44:42.029Z,86.87
2018-09-12T03:47:10.508Z,87.32
2018-09-12T03:49:38.998Z,87.06
2018-09-12T03:52:07.457Z,88.00
2018-09-12T03:54:35.991Z,88.33
2018-09-12T03:57:04.558Z,88.67
2018-09-12T03:59:33.057Z,88.91
2018-09-12T04:02:01.501Z,88.22
2018-09-12T04:04:29.973Z,88.05
2018-09-12T04:06:58.590Z,88.83
2018-09-12T04:09:27.130Z,88.35
2018-09-12T04:11:55.581Z,89.15
2018-09-12T04:14:24.235Z,89.22
2018-09-12T04:16:52.890Z,88.63
2018-09-12T04:19:21.982Z,88.79
2018-09-12T04:21:50.668Z,89.81
2018-09-12T04:24:19.179Z,90.00
2018-09-12T04:26:47.747Z,89.81
2018-09-12T04:29:16.177Z,89.54
2018-09-12T04:31:44.716Z,89.30
2018-09-12T04:34:13.390Z,90.20
2018-09-12T04:36:41.885Z,88.72
2018-09-12T04:39:11.525Z,89.39
2018-09-12T04:41:40.095Z,89.95
2018-09-12T04:44:08.624Z,90.74
2018-09-12T04:46:37.480Z,89.66
2018-09-12T04:49:06.190Z,89.51
2018-09-12T04:51:34.686Z,89.04
2018-09-12T04:54:03.141Z,89.09
2018-09-12T04:56:31.620Z,89.81
2018-09-12T04:59:00.125Z,89.72
2018-09-12T05:01:28.625Z,89.22
2018-09-12T05:03:57.098Z,89.30
2018-09-12T05:06:25.625Z,89.81
2018-09-12T05:08:54.098Z,89.29
2018-09-12T05:11:22.601Z,89.89
2018-09-12T05:13:51.144Z,90.26
2018-09-12T05:16:19.746Z,89.96
2018-09-12T05:18:48.225Z,89.52
2018-09-12T05:21:16.701Z,90.06
2018-09-12T05:23:45.230Z,88.69
2018-09-12T05:26:13.717Z,88.27
2018-09-12T05:28:42.501Z,89.15
2018-09-12T05:31:10.984Z,88.75
2018-09-12T05:33:39.420Z,88.39
2018-09-12T05:36:08.027Z,89.14
2018-09-12T05:38:36.465Z,88.74
2018-09-12T05:41:04.961Z,89.34
2018-09-12T05:43:33.429Z,88.96
2018-09-12T05:46:02.019Z,88.73
2018-09-12T05:48:30.505Z,89.73
2018-09-12T05:50:59.004Z,88.60
2018-09-12T05:53:27.449Z,89.22
2018-09-12T05:55:55.913Z,89.23
2018-09-12T05:58:24.401Z,89.05
2018-09-12T06:00:52.889Z,88.63
2018-09-12T06:03:21.385Z,89.17
2018-09-12T06:05:49.837Z,88.34
2018-09-12T06:08:18.453Z,88.76
2018-09-12T06:10:46.897Z,89.27
2018-09-12T06:13:15.447Z,87.96
2018-09-12T06:15:44.057Z,88.65
2018-09-12T06:18:12.602Z,89.07
2018-09-12T06:20:41.196Z,88.35
2018-09-12T06:23:09.728Z,88.15
2018-09-12T06:25:38.201Z,88.46
2018-09-12T06:28:06.816Z,88.97
2018-09-12T06:30:35.512Z,89.65
2018-09-12T06:33:03.965Z,89.26
2018-09-12T06:35:32.529Z,88.79
2018-09-12T06:38:01.009Z,89.44
2018-09-12T06:40:29.573Z,89.53
2018-09-12T06:42:58.100Z,90.15
2018-09-12T06:45:26.606Z,90.20
2018-09-12T06:47:55.087Z,90.78
2018-09-12T06:50:23.596Z,90.83
2018-09-12T06:52:52.049Z,91.19
2018-09-12T06:55:20.541Z,91.16
2018-09-12T06:57:49.029Z,90.76
2018-09-12T07:00:17.553Z,90.75
2018-09-12T07:02:46.025Z,90.67
2018-09-12T07:05:14.837Z,89.93
2018-09-12T07:07:43.303Z,90.29
2018-09-12T07:10:11.800Z,90.42
2018-09-12T07:12:40.314Z,90.70
2018-09-12T07:15:08.932Z,90.23
2018-09-12T07:17:37.465Z,90.20
2018-09-12T07:20:05.974Z,90.87
2018-09-12T07:22:34.483Z,90.49
2018-09-12T07:25:02.965Z,90.12
2018-09-12T07:27:31.692Z,89.91
2018-09-12T07:30:00.215Z,89.43
2018-09-12T07:32:28.688Z,89.82
2018-09-12T07:34:57.244Z,89.97
2018-09-12T07:37:25.761Z,90.00
2018-09-12T07:39:54.264Z,88.61
2018-09-12T07:42:22.745Z,89.23
2018-09-12T07:44:51.358Z,89.25
2018-09-12T07:47:19.907Z,88.02
2018-09-12T07:49:48.386Z,88.69
2018-09-12T07:52:16.881Z,89.02
2018-09-12T07:54:45.421Z,89.24
2018-09-12T07:57:13.885Z,89.52
2018-09-12T07:59:42.381Z,89.37
2018-09-12T08:02:10.831Z,88.98
2018-09-12T08:04:39.324Z,88.75
2018-09-12T08:07:07.834Z,89.29
2018-09-12T08:09:36.321Z,89.83
2018-09-12T08:12:04.856Z,89.07
2018-09-12T08:14:33.354Z,89.82
2018-09-12T08:17:01.889Z,89.63
2018-09-12T08:19:30.404Z,88.76
2018-09-12T08:21:58.905Z,89.19
2018-09-12T08:24:27.372Z,89.03
2018-09-12T08:26:55.858Z,89.26
2018-09-12T08:29:24.341Z,89.91
2018-09-12T08:31:52.851Z,90.15
2018-09-12T08:34:21.428Z,89.59
2018-09-12T08:36:49.862Z,89.90
2018-09-12T08:39:18.517Z,89.56
2018-09-12T08:41:47.017Z,88.87
2018-09-12T08:44:15.489Z,88.70
2018-09-12T08:46:44.122Z,88.83
2018-09-12T08:49:12.642Z,87.79
2018-09-12T08:51:41.527Z,86.13
2018-09-12T08:54:10.049Z,86.64
2018-09-12T08:56:38.567Z,87.15
2018-09-12T08:59:07.090Z,87.83
2018-09-12T09:01:35.648Z,88.17
2018-09-12T09:04:04.227Z,87.69
2018-09-12T09:06:32.750Z,86.90
2018-09-12T09:09:01.625Z,87.82
2018-09-12T09:11:30.131Z,88.54
2018-09-12T09:13:58.641Z,87.31
2018-09-12T09:16:27.341Z,87.80
2018-09-12T09:18:55.888Z,86.95
2018-09-12T09:21:24.393Z,86.15
2018-09-12T09:23:53.116Z,85.59
2018-09-12T09:26:21.639Z,84.83
2018-09-12T09:28:50.127Z,86.36
2018-09-12T09:31:18.677Z,86.28
2018-09-12T09:33:47.182Z,88.01
2018-09-12T09:36:15.652Z,86.28
2018-09-12T09:38:44.134Z,87.05
2018-09-12T09:41:12.617Z,87.12
2018-09-12T09:43:41.077Z,86.58
2018-09-12T09:46:09.638Z,85.60
2018-09-12T09:48:38.158Z,84.58
2018-09-12T09:51:06.650Z,82.06
2018-09-12T09:53:35.315Z,81.43
2018-09-12T09:56:04.283Z,81.37
2018-09-12T09:58:32.873Z,80.66
2018-09-12T10:01:06.833Z,81.44
2018-09-12T10:03:40.571Z,80.95
2018-09-12T10:06:14.386Z,80.66
2018-09-12T10:08:48.074Z,79.74
2018-09-12T10:11:16.636Z,79.63
2018-09-12T10:13:45.261Z,80.50
2018-09-12T10:16:13.759Z,80.72
2018-09-12T10:18:42.280Z,78.68
2018-09-12T10:21:10.741Z,78.08
2018-09-12T10:23:39.221Z,76.47
2018-09-12T10:26:07.709Z,76.17
2018-09-12T10:28:36.210Z,76.32
2018-09-12T10:31:04.692Z,75.30
2018-09-12T10:33:33.149Z,76.18
2018-09-12T10:36:01.654Z,74.00
2018-09-12T10:38:30.198Z,75.44
2018-09-12T10:40:58.812Z,75.32
2018-09-12T10:43:27.280Z,75.23
2018-09-12T10:45:55.728Z,74.99
2018-09-12T10:48:24.205Z,75.58
2018-09-12T10:50:52.701Z,76.40
2018-09-12T10:53:21.186Z,76.38
2018-09-12T10:55:49.795Z,77.25
2018-09-12T10:58:18.349Z,76.96
2018-09-12T11:00:46.846Z,74.86
2018-09-12T11:03:15.365Z,77.65
2018-09-12T11:05:43.810Z,76.38
2018-09-12T11:08:12.319Z,77.20
2018-09-12T11:10:40.805Z,76.57
2018-09-12T11:13:09.345Z,76.93
2018-09-12T11:15:37.854Z,79.58
2018-09-12T11:18:06.521Z,78.64
2018-09-12T11:20:35.033Z,78.60
2018-09-12T11:23:03.498Z,79.04
2018-09-12T11:25:31.973Z,78.56
2018-09-12T11:28:00.801Z,76.92
2018-09-12T11:30:29.270Z,78.06
2018-09-12T11:32:57.797Z,79.10
2018-09-12T11:35:26.326Z,79.73
2018-09-12T11:37:54.839Z,78.15
2018-09-12T11:40:23.353Z,78.79
2018-09-12T11:42:51.850Z,77.15
2018-09-12T11:45:20.795Z,74.96
2018-09-12T11:47:49.306Z,75.55
2018-09-12T11:50:17.809Z,75.55
2018-09-12T11:52:46.297Z,72.95
2018-09-12T11:55:14.790Z,73.81
2018-09-12T11:57:43.262Z,72.36
2018-09-12T12:00:11.774Z,70.60
2018-09-12T12:02:40.334Z,74.38
2018-09-12T12:05:08.860Z,74.85
2018-09-12T12:07:37.649Z,72.92
2018-09-12T12:10:06.187Z,75.73
2018-09-12T12:12:34.714Z,74.22
2018-09-12T12:15:03.215Z,73.77
2018-09-12T12:17:31.706Z,73.37
2018-09-12T12:20:00.279Z,75.07
2018-09-12T12:22:28.738Z,71.86
2018-09-12T12:24:57.194Z,73.82
2018-09-12T12:27:25.705Z,73.75
2018-09-12T12:29:54.183Z,73.28
2018-09-12T12:32:22.677Z,69.65
2018-09-12T12:34:51.169Z,67.27
2018-09-12T12:37:19.638Z,67.42
2018-09-12T12:39:48.122Z,70.54
2018-09-12T12:42:16.685Z,70.92
2018-09-12T12:44:45.221Z,67.81
2018-09-12T12:47:13.760Z,69.25
2018-09-12T12:49:42.297Z,67.51
2018-09-12T12:52:10.857Z,68.25
2018-09-12T12:54:39.493Z,66.89
2018-09-12T12:57:07.998Z,66.53
2018-09-12T12:59:36.622Z,69.30
2018-09-12T13:02:05.096Z,68.31
2018-09-12T13:04:33.614Z,67.58
2018-09-12T13:07:02.100Z,67.42
2018-09-12T13:09:30.623Z,68.31
2018-09-12T13:11:59.199Z,67.78
2018-09-12T13:14:27.703Z,64.64
2018-09-12T13:16:56.209Z,65.35
2018-09-12T13:19:24.855Z,67.31
2018-09-12T13:21:53.540Z,66.90
2018-09-12T13:24:21.856Z,67.79
2018-09-12T13:26:50.402Z,66.75
2018-09-12T13:29:18.926Z,67.18
2018-09-12T13:31:47.397Z,68.26
2018-09-12T13:34:15.939Z,67.84
2018-09-12T13:36:44.480Z,67.68
2018-09-12T13:39:15.854Z,67.05
2018-09-12T13:41:44.434Z,66.90
2018-09-12T13:44:12.958Z,65.59
2018-09-12T13:46:41.466Z,65.54
2018-09-12T13:49:09.945Z,66.45
2018-09-12T13:51:38.538Z,66.19
2018-09-12T13:54:07.052Z,65.50
2018-09-12T13:56:35.793Z,66.26
2018-09-12T13:59:04.284Z,65.72
2018-09-12T14:01:32.781Z,67.15
2018-09-12T14:04:01.290Z,67.75
2018-09-12T14:06:29.814Z,66.64
2018-09-12T14:08:58.437Z,67.71
2018-09-12T14:11:26.865Z,68.39
2018-09-12T14:13:55.398Z,66.40
2018-09-12T14:16:23.927Z,69.02
2018-09-12T14:18:52.417Z,67.20
2018-09-12T14:21:20.886Z,69.10
2018-09-12T14:23:49.371Z,69.40
2018-09-12T14:26:17.909Z,68.82
2018-09-12T14:28:46.390Z,70.98
2018-09-12T14:31:14.868Z,71.78
2018-09-12T14:33:43.358Z,72.92
2018-09-12T14:36:11.839Z,75.40
2018-09-12T14:38:40.309Z,78.36
2018-09-12T14:41:08.830Z,80.24
2018-09-12T14:43:37.309Z,81.67
2018-09-12T14:46:05.769Z,82.16
2018-09-12T14:48:34.299Z,81.12
2018-09-12T14:51:02.852Z,80.13
2018-09-12T14:53:31.401Z,80.08
2018-09-12T14:55:59.917Z,79.42
2018-09-12T14:58:28.451Z,77.99
2018-09-12T15:00:56.908Z,77.23
2018-09-12T15:03:25.416Z,76.05
2018-09-12T15:05:53.932Z,74.90
2018-09-12T15:08:22.418Z,75.30
2018-09-12T15:10:50.904Z,74.17
2018-09-12T15:13:19.390Z,74.35
2018-09-12T15:15:47.849Z,73.25
2018-09-12T15:18:16.324Z,72.59
2018-09-12T15:20:44.829Z,72.18
2018-09-12T15:23:13.313Z,70.06
2018-09-12T15:25:41.825Z,69.82
2018-09-12T15:28:10.305Z,68.39
2018-09-12T15:30:38.938Z,68.17
2018-09-12T15:33:07.487Z,67.31
2018-09-12T15:35:35.969Z,67.92
2018-09-12T15:38:04.469Z,68.79
2018-09-12T15:40:33.022Z,69.11
2018-09-12T15:43:01.517Z,68.94
2018-09-12T15:45:30.045Z,69.90
2018-09-12T15:47:58.566Z,70.12
2018-09-12T15:50:28.005Z,71.08
2018-09-12T15:52:56.616Z,69.99
2018-09-12T15:55:25.128Z,70.96
2018-09-12T15:57:53.696Z,72.71
2018-09-12T16:00:22.215Z,73.60
2018-09-12T16:02:50.812Z,74.48
2018-09-12T16:05:19.281Z,76.56
2018-09-12T16:07:47.810Z,78.47
2018-09-12T16:10:16.297Z,79.30
2018-09-12T16:12:44.837Z,80.30
2018-09-12T16:15:13.358Z,81.04
2018-09-12T16:17:41.897Z,80.06
2018-09-12T16:20:10.374Z,79.99
2018-09-12T16:22:38.921Z,79.67
2018-09-12T16:25:07.641Z,79.10
2018-09-12T16:27:36.128Z,78.68
2018-09-12T16:30:04.969Z,77.93
2018-09-12T16:32:33.459Z,76.84
2018-09-12T16:35:02.446Z,76.86
2018-09-12T16:37:30.925Z,77.24
2018-09-12T16:39:59.674Z,77.89
2018-09-12T16:42:28.141Z,76.68
2018-09-12T16:44:56.617Z,77.54
2018-09-12T16:47:25.134Z,76.98
2018-09-12T16:49:53.639Z,77.40
2018-09-12T16:52:22.142Z,77.40
2018-09-12T16:54:51.135Z,77.17
2018-09-12T16:57:19.253Z,76.97
2018-09-12T16:59:47.749Z,77.06
2018-09-12T17:02:16.289Z,76.75
2018-09-12T17:07:47.631Z,77.29
2018-09-12T17:10:16.097Z,77.71
2018-09-12T17:12:44.726Z,77.76
2018-09-12T17:15:13.383Z,75.77
2018-09-12T17:17:41.873Z,76.28
2018-09-12T17:20:10.343Z,74.10
2018-09-12T17:22:38.882Z,74.95
2018-09-12T17:25:07.567Z,74.65
2018-09-12T17:27:36.045Z,74.82
2018-09-12T17:30:04.581Z,73.69
2018-09-12T17:32:33.083Z,74.59
2018-09-12T17:35:01.713Z,74.52
2018-09-12T17:37:30.177Z,74.04
2018-09-12T17:39:58.673Z,74.06
2018-09-12T17:42:27.175Z,74.39
2018-09-12T17:44:55.771Z,74.80
2018-09-12T17:47:24.314Z,74.52
2018-09-12T17:49:52.801Z,74.59
2018-09-12T17:52:21.366Z,74.40
2018-09-12T17:54:49.930Z,74.14
2018-09-12T17:57:18.430Z,75.38
2018-09-12T17:59:47.042Z,75.11
2018-09-12T18:02:15.619Z,74.93
2018-09-12T18:04:44.165Z,74.60
2018-09-12T18:07:12.729Z,74.81
2018-09-12T18:09:41.230Z,75.48
2018-09-12T18:12:09.725Z,75.09
2018-09-12T18:14:38.202Z,75.61
2018-09-12T18:17:06.774Z,75.55
2018-09-12T18:19:35.273Z,75.30
2018-09-12T18:22:03.861Z,75.05
2018-09-12T18:24:33.468Z,75.56
2018-09-12T18:27:02.128Z,75.61
2018-09-12T18:29:30.827Z,75.93
2018-09-12T18:31:59.442Z,76.25
2018-09-12T18:34:28.074Z,75.87
2018-09-12T18:36:57.190Z,75.04
2018-09-12T18:39:26.442Z,75.87
2018-09-12T18:41:55.577Z,75.92
2018-09-12T18:44:25.050Z,75.49
2018-09-12T18:46:54.883Z,76.14
2018-09-12T18:49:24.901Z,75.52
2018-09-12T18:51:55.559Z,75.93
2018-09-12T18:54:25.953Z,75.65
2018-09-12T18:56:56.722Z,75.67
2018-09-12T18:59:26.691Z,75.85
2018-09-12T19:01:56.862Z,75.76
2018-09-12T19:04:27.187Z,76.52
2018-09-12T19:06:57.441Z,76.81
2018-09-12T19:09:28.041Z,76.51
2018-09-12T19:11:58.005Z,76.37
2018-09-12T19:14:28.288Z,77.05
2018-09-12T19:16:58.507Z,76.62
2018-09-12T19:19:28.832Z,76.32
2018-09-12T19:21:59.250Z,76.38
2018-09-12T19:24:29.484Z,76.44
2018-09-12T19:26:59.804Z,75.83
2018-09-12T19:29:29.940Z,76.75
2018-09-12T19:32:00.001Z,76.97
2018-09-12T19:34:30.172Z,77.51
2018-09-12T19:37:00.476Z,76.27
2018-09-12T19:39:30.413Z,76.77
2018-09-12T19:42:00.058Z,77.30
2018-09-12T19:44:29.486Z,76.76
2018-09-12T19:46:58.494Z,76.57
2018-09-12T19:49:27.725Z,77.09
2018-09-12T19:51:56.379Z,76.02
2018-09-12T19:54:24.886Z,76.70
2018-09-12T19:56:53.373Z,75.88
2018-09-12T19:59:21.925Z,76.39
2018-09-12T20:01:50.499Z,76.64
2018-09-12T20:04:18.954Z,76.45
2018-09-12T20:06:47.412Z,77.19
2018-09-12T20:09:15.893Z,76.79
2018-09-12T20:11:44.507Z,77.36
2018-09-12T20:14:13.121Z,76.65
2018-09-12T20:16:41.569Z,76.31
2018-09-12T20:19:10.122Z,77.20
2018-09-12T20:21:38.742Z,76.66
2018-09-12T20:24:07.907Z,77.30
2018-09-12T20:26:36.449Z,77.83
2018-09-12T20:29:04.945Z,77.68
2018-09-12T20:31:33.490Z,77.84
2018-09-12T20:34:02.045Z,78.18
2018-09-12T20:36:30.637Z,78.30
2018-09-12T20:38:59.134Z,78.61
2018-09-12T20:41:28.159Z,78.84
2018-09-12T20:43:56.622Z,79.39
2018-09-12T20:46:25.091Z,79.32
2018-09-12T20:48:53.673Z,79.45
2018-09-12T20:51:22.856Z,80.20
2018-09-12T20:53:51.381Z,79.54
2018-09-12T20:56:19.906Z,80.36
2018-09-12T20:58:48.464Z,80.86
2018-09-12T21:01:16.941Z,80.77
2018-09-12T21:03:46.093Z,80.70
2018-09-12T21:06:14.573Z,80.58
2018-09-12T21:08:43.056Z,80.99
2018-09-12T21:11:11.621Z,80.68
2018-09-12T21:13:40.120Z,80.33
2018-09-12T21:16:08.629Z,79.75
2018-09-12T21:18:37.214Z,81.36
2018-09-12T21:21:05.970Z,80.90
2018-09-12T21:23:34.501Z,80.32
2018-09-12T21:26:02.980Z,80.57
2018-09-12T21:28:31.450Z,80.24
2018-09-12T21:31:00.048Z,80.47
2018-09-12T21:33:28.682Z,81.09
2018-09-12T21:35:57.231Z,80.98
2018-09-12T21:38:25.718Z,80.90
2018-09-12T21:40:54.346Z,81.19
2018-09-12T21:43:22.953Z,81.46
2018-09-12T21:45:51.445Z,81.14
2018-09-12T21:48:19.951Z,81.27
2018-09-12T21:50:48.485Z,81.30
2018-09-12T21:53:16.964Z,81.68
2018-09-12T21:55:45.485Z,81.57
2018-09-12T21:58:14.047Z,81.77
2018-09-12T22:00:42.560Z,81.08
2018-09-12T22:03:11.001Z,81.42
2018-09-12T22:05:39.483Z,80.75
2018-09-12T22:08:08.027Z,80.68
2018-09-12T22:10:37.017Z,80.67
2018-09-12T22:13:05.500Z,80.49
2018-09-12T22:15:34.042Z,80.68
2018-09-12T22:18:02.539Z,81.66
2018-09-12T22:20:31.002Z,80.50
2018-09-12T22:22:59.601Z,81.12
2018-09-12T22:25:28.189Z,81.13
2018-09-12T22:27:56.701Z,81.46
2018-09-12T22:30:25.266Z,80.58
2018-09-12T22:32:53.843Z,81.03
2018-09-12T22:35:22.332Z,81.25
2018-09-12T22:37:50.841Z,80.73
2018-09-12T22:40:19.535Z,80.77
2018-09-12T22:42:48.145Z,81.24
2018-09-12T22:45:17.465Z,81.57
2018-09-12T22:47:46.221Z,81.92
2018-09-12T22:50:14.715Z,81.78
2018-09-12T22:52:43.937Z,81.28
2018-09-12T22:55:12.532Z,81.14
2018-09-12T22:57:41.114Z,81.67
2018-09-12T23:00:10.029Z,81.42
2018-09-12T23:02:38.509Z,81.23
2018-09-12T23:05:07.334Z,81.29
2018-09-12T23:07:35.798Z,81.27
2018-09-12T23:10:04.519Z,81.57
2018-09-12T23:12:33.087Z,80.98
2018-09-12T23:15:01.606Z,81.04
2018-09-12T23:17:30.308Z,81.32
2018-09-12T23:19:58.805Z,80.34
2018-09-12T23:22:28.025Z,80.87
2018-09-12T23:24:56.544Z,81.15
2018-09-12T23:27:25.011Z,80.94
2018-09-12T23:29:53.534Z,81.02
2018-09-12T23:32:22.126Z,81.38
2018-09-12T23:34:50.732Z,81.31
2018-09-12T23:37:19.282Z,81.25
2018-09-12T23:39:47.885Z,81.92
2018-09-12T23:42:16.510Z,82.14
2018-09-12T23:44:45.006Z,82.18
2018-09-12T23:47:13.483Z,81.68
2018-09-12T23:49:41.998Z,83.19
2018-09-12T23:52:10.629Z,82.60
2018-09-12T23:54:39.627Z,82.29
2018-09-12T23:57:08.171Z,82.41
2018-09-12T23:59:36.743Z,83.24
